sensor_id;sensor_type;location;lat;lon;timestamp;P1;durP1;ratioP1;P2;durP2;ratioP2
20334;SDS011;10325;51.468;5.804;2023-06-01T00:00:11;1.60;;;1.50;;
20334;SDS011;10325;51.468;5.804;2023-06-01T00:02:41;2.40;;;1.80;;
20334;SDS011;10325;51.468;5.804;2023-06-01T00:05:12;3.13;;;2.00;;
20334;SDS011;10325;51.468;5.804;2023-06-01T00:07:43;1.70;;;1.60;;
20334;SDS011;10325;51.468;5.804;2023-06-01T00:10:12;1.47;;;1.37;;
20334;SDS011;10325;51.468;5.804;2023-06-01T00:12:42;1.90;;;1.60;;
20334;SDS011;10325;51.468;5.804;2023-06-01T00:15:12;2.50;;;1.80;;
20334;SDS011;10325;51.468;5.804;2023-06-01T00:17:47;2.00;;;1.80;;
20334;SDS011;10325;51.468;5.804;2023-06-01T00:20:23;1.77;;;1.67;;
20334;SDS011;10325;51.468;5.804;2023-06-01T00:23:04;1.80;;;1.70;;
20334;SDS011;10325;51.468;5.804;2023-06-01T00:25:35;1.77;;;1.50;;
20334;SDS011;10325;51.468;5.804;2023-06-01T00:28:06;1.87;;;1.67;;
20334;SDS011;10325;51.468;5.804;2023-06-01T00:30:36;2.50;;;1.60;;
20334;SDS011;10325;51.468;5.804;2023-06-01T00:33:09;2.07;;;1.67;;
20334;SDS011;10325;51.468;5.804;2023-06-01T00:35:39;1.60;;;1.50;;
20334;SDS011;10325;51.468;5.804;2023-06-01T00:38:11;2.40;;;1.80;;
20334;SDS011;10325;51.468;5.804;2023-06-01T00:40:39;2.43;;;1.83;;
20334;SDS011;10325;51.468;5.804;2023-06-01T00:43:11;2.07;;;1.40;;
20334;SDS011;10325;51.468;5.804;2023-06-01T00:45:41;1.53;;;1.43;;
20334;SDS011;10325;51.468;5.804;2023-06-01T00:48:19;1.73;;;1.63;;
20334;SDS011;10325;51.468;5.804;2023-06-01T00:50:51;1.90;;;1.67;;
20334;SDS011;10325;51.468;5.804;2023-06-01T00:53:21;1.90;;;1.60;;
20334;SDS011;10325;51.468;5.804;2023-06-01T00:55:52;1.80;;;1.70;;
20334;SDS011;10325;51.468;5.804;2023-06-01T00:58:22;2.03;;;1.77;;
20334;SDS011;10325;51.468;5.804;2023-06-01T01:00:50;2.00;;;1.87;;
20334;SDS011;10325;51.468;5.804;2023-06-01T01:03:49;1.67;;;1.57;;
20334;SDS011;10325;51.468;5.804;2023-06-01T01:06:35;1.70;;;1.57;;
20334;SDS011;10325;51.468;5.804;2023-06-01T01:09:44;1.83;;;1.63;;
20334;SDS011;10325;51.468;5.804;2023-06-01T01:12:43;1.97;;;1.70;;
20334;SDS011;10325;51.468;5.804;2023-06-01T01:18:30;1.70;;;1.60;;
20334;SDS011;10325;51.468;5.804;2023-06-01T01:21:10;1.70;;;1.60;;
20334;SDS011;10325;51.468;5.804;2023-06-01T01:27:04;2.13;;;1.93;;
20334;SDS011;10325;51.468;5.804;2023-06-01T01:29:54;2.80;;;1.90;;
20334;SDS011;10325;51.468;5.804;2023-06-01T01:32:30;2.37;;;1.70;;
20334;SDS011;10325;51.468;5.804;2023-06-01T01:35:12;1.93;;;1.83;;
20334;SDS011;10325;51.468;5.804;2023-06-01T01:37:51;3.00;;;2.00;;
20334;SDS011;10325;51.468;5.804;2023-06-01T01:40:23;1.93;;;1.77;;
20334;SDS011;10325;51.468;5.804;2023-06-01T01:42:54;2.03;;;1.70;;
20334;SDS011;10325;51.468;5.804;2023-06-01T01:45:27;2.87;;;1.70;;
20334;SDS011;10325;51.468;5.804;2023-06-01T01:51:15;2.30;;;2.10;;
20334;SDS011;10325;51.468;5.804;2023-06-01T01:53:53;1.80;;;1.60;;
20334;SDS011;10325;51.468;5.804;2023-06-01T01:56:32;1.70;;;1.60;;
20334;SDS011;10325;51.468;5.804;2023-06-01T01:59:07;1.80;;;1.70;;
20334;SDS011;10325;51.468;5.804;2023-06-01T02:01:38;2.10;;;1.90;;
20334;SDS011;10325;51.468;5.804;2023-06-01T02:04:26;3.67;;;2.10;;
20334;SDS011;10325;51.468;5.804;2023-06-01T02:06:57;2.13;;;1.77;;
20334;SDS011;10325;51.468;5.804;2023-06-01T02:09:32;1.90;;;1.73;;
20334;SDS011;10325;51.468;5.804;2023-06-01T02:12:02;2.60;;;1.70;;
20334;SDS011;10325;51.468;5.804;2023-06-01T02:14:33;1.90;;;1.70;;
20334;SDS011;10325;51.468;5.804;2023-06-01T02:17:06;1.60;;;1.50;;
20334;SDS011;10325;51.468;5.804;2023-06-01T02:19:34;1.90;;;1.77;;
20334;SDS011;10325;51.468;5.804;2023-06-01T02:22:02;1.90;;;1.70;;
20334;SDS011;10325;51.468;5.804;2023-06-01T02:24:45;2.37;;;2.10;;
20334;SDS011;10325;51.468;5.804;2023-06-01T02:27:13;1.83;;;1.73;;
20334;SDS011;10325;51.468;5.804;2023-06-01T02:29:45;2.90;;;2.10;;
20334;SDS011;10325;51.468;5.804;2023-06-01T02:32:19;1.70;;;1.60;;
20334;SDS011;10325;51.468;5.804;2023-06-01T02:34:50;2.60;;;1.70;;
20334;SDS011;10325;51.468;5.804;2023-06-01T02:37:24;1.80;;;1.70;;
20334;SDS011;10325;51.468;5.804;2023-06-01T02:39:55;2.50;;;1.73;;
20334;SDS011;10325;51.468;5.804;2023-06-01T02:42:33;3.13;;;1.97;;
20334;SDS011;10325;51.468;5.804;2023-06-01T02:45:02;3.37;;;2.03;;
20334;SDS011;10325;51.468;5.804;2023-06-01T02:47:35;2.90;;;1.80;;
20334;SDS011;10325;51.468;5.804;2023-06-01T02:50:06;1.80;;;1.70;;
20334;SDS011;10325;51.468;5.804;2023-06-01T02:52:37;2.03;;;1.83;;
20334;SDS011;10325;51.468;5.804;2023-06-01T02:55:08;2.10;;;1.83;;
20334;SDS011;10325;51.468;5.804;2023-06-01T02:57:38;1.80;;;1.47;;
20334;SDS011;10325;51.468;5.804;2023-06-01T03:00:10;2.17;;;1.90;;
20334;SDS011;10325;51.468;5.804;2023-06-01T03:02:50;2.00;;;1.80;;
20334;SDS011;10325;51.468;5.804;2023-06-01T03:05:22;2.03;;;1.77;;
20334;SDS011;10325;51.468;5.804;2023-06-01T03:07:54;2.07;;;1.87;;
20334;SDS011;10325;51.468;5.804;2023-06-01T03:10:22;2.20;;;1.80;;
20334;SDS011;10325;51.468;5.804;2023-06-01T03:12:55;2.33;;;2.00;;
20334;SDS011;10325;51.468;5.804;2023-06-01T03:15:26;2.33;;;2.13;;
20334;SDS011;10325;51.468;5.804;2023-06-01T03:17:55;2.90;;;2.00;;
20334;SDS011;10325;51.468;5.804;2023-06-01T03:20:26;2.37;;;1.80;;
20334;SDS011;10325;51.468;5.804;2023-06-01T03:22:57;3.57;;;2.27;;
20334;SDS011;10325;51.468;5.804;2023-06-01T03:25:28;2.67;;;1.87;;
20334;SDS011;10325;51.468;5.804;2023-06-01T03:28:00;1.90;;;1.80;;
20334;SDS011;10325;51.468;5.804;2023-06-01T03:30:27;2.20;;;2.00;;
20334;SDS011;10325;51.468;5.804;2023-06-01T03:33:03;2.33;;;2.13;;
20334;SDS011;10325;51.468;5.804;2023-06-01T03:35:35;2.40;;;2.00;;
20334;SDS011;10325;51.468;5.804;2023-06-01T03:38:08;1.77;;;1.60;;
20334;SDS011;10325;51.468;5.804;2023-06-01T03:40:39;2.67;;;1.90;;
20334;SDS011;10325;51.468;5.804;2023-06-01T03:43:10;2.57;;;1.90;;
20334;SDS011;10325;51.468;5.804;2023-06-01T03:45:41;2.30;;;2.10;;
20334;SDS011;10325;51.468;5.804;2023-06-01T03:48:12;2.70;;;1.80;;
20334;SDS011;10325;51.468;5.804;2023-06-01T03:50:42;1.90;;;1.80;;
20334;SDS011;10325;51.468;5.804;2023-06-01T03:53:14;2.40;;;1.87;;
20334;SDS011;10325;51.468;5.804;2023-06-01T03:55:51;2.23;;;1.77;;
20334;SDS011;10325;51.468;5.804;2023-06-01T03:58:23;1.90;;;1.80;;
20334;SDS011;10325;51.468;5.804;2023-06-01T04:01:00;2.00;;;1.80;;
20334;SDS011;10325;51.468;5.804;2023-06-01T04:03:36;2.10;;;1.90;;
20334;SDS011;10325;51.468;5.804;2023-06-01T04:06:07;2.37;;;1.90;;
20334;SDS011;10325;51.468;5.804;2023-06-01T04:08:38;1.90;;;1.63;;
20334;SDS011;10325;51.468;5.804;2023-06-01T04:11:18;2.23;;;1.57;;
20334;SDS011;10325;51.468;5.804;2023-06-01T04:13:54;1.93;;;1.83;;
20334;SDS011;10325;51.468;5.804;2023-06-01T04:16:24;2.23;;;2.03;;
20334;SDS011;10325;51.468;5.804;2023-06-01T04:18:57;1.83;;;1.60;;
20334;SDS011;10325;51.468;5.804;2023-06-01T04:21:28;1.70;;;1.60;;
20334;SDS011;10325;51.468;5.804;2023-06-01T04:24:00;2.20;;;2.00;;
20334;SDS011;10325;51.468;5.804;2023-06-01T04:26:31;2.00;;;1.90;;
20334;SDS011;10325;51.468;5.804;2023-06-01T04:29:03;2.60;;;2.00;;
20334;SDS011;10325;51.468;5.804;2023-06-01T04:31:34;2.17;;;1.83;;
20334;SDS011;10325;51.468;5.804;2023-06-01T04:34:03;2.00;;;1.80;;
20334;SDS011;10325;51.468;5.804;2023-06-01T04:36:35;2.10;;;2.00;;
20334;SDS011;10325;51.468;5.804;2023-06-01T04:39:09;2.07;;;1.73;;
20334;SDS011;10325;51.468;5.804;2023-06-01T04:41:37;2.00;;;1.70;;
20334;SDS011;10325;51.468;5.804;2023-06-01T04:44:13;1.77;;;1.67;;
20334;SDS011;10325;51.468;5.804;2023-06-01T04:46:43;1.93;;;1.70;;
20334;SDS011;10325;51.468;5.804;2023-06-01T04:49:14;1.80;;;1.70;;
20334;SDS011;10325;51.468;5.804;2023-06-01T04:51:48;2.50;;;1.70;;
20334;SDS011;10325;51.468;5.804;2023-06-01T04:54:21;1.63;;;1.53;;
20334;SDS011;10325;51.468;5.804;2023-06-01T04:56:50;1.53;;;1.43;;
20334;SDS011;10325;51.468;5.804;2023-06-01T04:59:22;2.23;;;1.80;;
20334;SDS011;10325;51.468;5.804;2023-06-01T05:01:53;1.93;;;1.70;;
20334;SDS011;10325;51.468;5.804;2023-06-01T05:04:25;2.40;;;1.90;;
20334;SDS011;10325;51.468;5.804;2023-06-01T05:06:55;2.73;;;2.23;;
20334;SDS011;10325;51.468;5.804;2023-06-01T05:09:25;2.73;;;2.00;;
20334;SDS011;10325;51.468;5.804;2023-06-01T05:11:56;3.40;;;2.27;;
20334;SDS011;10325;51.468;5.804;2023-06-01T05:14:27;2.23;;;2.00;;
20334;SDS011;10325;51.468;5.804;2023-06-01T05:16:57;2.67;;;2.00;;
20334;SDS011;10325;51.468;5.804;2023-06-01T05:19:33;3.43;;;2.30;;
20334;SDS011;10325;51.468;5.804;2023-06-01T05:22:05;5.63;;;2.40;;
20334;SDS011;10325;51.468;5.804;2023-06-01T05:24:39;2.33;;;1.97;;
20334;SDS011;10325;51.468;5.804;2023-06-01T05:27:10;2.50;;;2.20;;
20334;SDS011;10325;51.468;5.804;2023-06-01T05:29:41;3.07;;;2.10;;
20334;SDS011;10325;51.468;5.804;2023-06-01T05:32:15;2.97;;;2.20;;
20334;SDS011;10325;51.468;5.804;2023-06-01T05:34:46;3.40;;;2.10;;
20334;SDS011;10325;51.468;5.804;2023-06-01T05:37:17;3.13;;;1.87;;
20334;SDS011;10325;51.468;5.804;2023-06-01T05:39:47;2.00;;;1.80;;
20334;SDS011;10325;51.468;5.804;2023-06-01T05:42:17;3.60;;;2.10;;
20334;SDS011;10325;51.468;5.804;2023-06-01T05:44:47;3.20;;;2.27;;
20334;SDS011;10325;51.468;5.804;2023-06-01T05:47:18;2.80;;;1.90;;
20334;SDS011;10325;51.468;5.804;2023-06-01T05:49:48;3.50;;;2.10;;
20334;SDS011;10325;51.468;5.804;2023-06-01T05:52:23;2.40;;;2.20;;
20334;SDS011;10325;51.468;5.804;2023-06-01T05:54:54;3.77;;;2.33;;
20334;SDS011;10325;51.468;5.804;2023-06-01T05:57:25;2.83;;;2.03;;
20334;SDS011;10325;51.468;5.804;2023-06-01T05:59:57;3.27;;;2.10;;
20334;SDS011;10325;51.468;5.804;2023-06-01T06:02:28;2.90;;;2.43;;
20334;SDS011;10325;51.468;5.804;2023-06-01T06:04:59;3.60;;;2.50;;
20334;SDS011;10325;51.468;5.804;2023-06-01T06:07:32;4.20;;;2.43;;
20334;SDS011;10325;51.468;5.804;2023-06-01T06:10:01;3.33;;;2.40;;
20334;SDS011;10325;51.468;5.804;2023-06-01T06:12:32;3.07;;;2.40;;
20334;SDS011;10325;51.468;5.804;2023-06-01T06:15:04;3.30;;;2.10;;
20334;SDS011;10325;51.468;5.804;2023-06-01T06:17:36;3.63;;;2.40;;
20334;SDS011;10325;51.468;5.804;2023-06-01T06:20:05;3.77;;;2.77;;
20334;SDS011;10325;51.468;5.804;2023-06-01T06:22:36;3.70;;;2.30;;
20334;SDS011;10325;51.468;5.804;2023-06-01T06:25:07;3.90;;;2.70;;
20334;SDS011;10325;51.468;5.804;2023-06-01T06:27:42;3.33;;;2.53;;
20334;SDS011;10325;51.468;5.804;2023-06-01T06:30:15;4.23;;;2.60;;
20334;SDS011;10325;51.468;5.804;2023-06-01T06:32:45;3.93;;;2.27;;
20334;SDS011;10325;51.468;5.804;2023-06-01T06:35:17;3.57;;;2.67;;
20334;SDS011;10325;51.468;5.804;2023-06-01T06:37:50;6.13;;;3.07;;
20334;SDS011;10325;51.468;5.804;2023-06-01T06:40:21;3.40;;;2.50;;
20334;SDS011;10325;51.468;5.804;2023-06-01T06:42:52;3.93;;;2.70;;
20334;SDS011;10325;51.468;5.804;2023-06-01T06:45:23;3.43;;;2.80;;
20334;SDS011;10325;51.468;5.804;2023-06-01T06:47:53;6.00;;;2.70;;
20334;SDS011;10325;51.468;5.804;2023-06-01T06:50:21;3.67;;;2.60;;
20334;SDS011;10325;51.468;5.804;2023-06-01T06:52:53;4.93;;;2.63;;
20334;SDS011;10325;51.468;5.804;2023-06-01T06:55:23;3.63;;;2.40;;
20334;SDS011;10325;51.468;5.804;2023-06-01T06:57:52;3.63;;;2.60;;
20334;SDS011;10325;51.468;5.804;2023-06-01T07:00:22;5.07;;;2.90;;
20334;SDS011;10325;51.468;5.804;2023-06-01T07:02:51;3.30;;;2.40;;
20334;SDS011;10325;51.468;5.804;2023-06-01T07:05:24;4.30;;;2.93;;
20334;SDS011;10325;51.468;5.804;2023-06-01T07:07:55;2.80;;;2.60;;
20334;SDS011;10325;51.468;5.804;2023-06-01T07:10:24;4.53;;;3.03;;
20334;SDS011;10325;51.468;5.804;2023-06-01T07:13:00;5.13;;;3.00;;
20334;SDS011;10325;51.468;5.804;2023-06-01T07:15:31;4.30;;;2.90;;
20334;SDS011;10325;51.468;5.804;2023-06-01T07:18:02;5.20;;;2.70;;
20334;SDS011;10325;51.468;5.804;2023-06-01T07:20:31;4.97;;;3.43;;
20334;SDS011;10325;51.468;5.804;2023-06-01T07:23:00;5.03;;;2.73;;
20334;SDS011;10325;51.468;5.804;2023-06-01T07:25:29;5.03;;;3.13;;
20334;SDS011;10325;51.468;5.804;2023-06-01T07:27:59;4.53;;;3.00;;
20334;SDS011;10325;51.468;5.804;2023-06-01T07:30:34;3.70;;;3.27;;
20334;SDS011;10325;51.468;5.804;2023-06-01T07:33:02;3.90;;;3.20;;
20334;SDS011;10325;51.468;5.804;2023-06-01T07:35:35;3.20;;;2.90;;
20334;SDS011;10325;51.468;5.804;2023-06-01T07:38:07;3.73;;;2.80;;
20334;SDS011;10325;51.468;5.804;2023-06-01T07:40:42;3.00;;;2.70;;
20334;SDS011;10325;51.468;5.804;2023-06-01T07:43:14;4.00;;;2.70;;
20334;SDS011;10325;51.468;5.804;2023-06-01T07:45:43;4.10;;;3.13;;
20334;SDS011;10325;51.468;5.804;2023-06-01T07:48:14;4.70;;;3.47;;
20334;SDS011;10325;51.468;5.804;2023-06-01T07:50:42;4.73;;;2.90;;
20334;SDS011;10325;51.468;5.804;2023-06-01T07:53:12;3.40;;;3.10;;
20334;SDS011;10325;51.468;5.804;2023-06-01T07:55:42;3.20;;;2.67;;
20334;SDS011;10325;51.468;5.804;2023-06-01T07:58:12;6.13;;;3.13;;
20334;SDS011;10325;51.468;5.804;2023-06-01T08:00:41;4.67;;;3.23;;
20334;SDS011;10325;51.468;5.804;2023-06-01T08:03:12;4.43;;;3.30;;
20334;SDS011;10325;51.468;5.804;2023-06-01T08:05:45;3.23;;;2.70;;
20334;SDS011;10325;51.468;5.804;2023-06-01T08:08:13;3.50;;;2.97;;
20334;SDS011;10325;51.468;5.804;2023-06-01T08:10:46;3.60;;;2.83;;
20334;SDS011;10325;51.468;5.804;2023-06-01T08:13:20;3.57;;;2.80;;
20334;SDS011;10325;51.468;5.804;2023-06-01T08:15:53;4.33;;;3.07;;
20334;SDS011;10325;51.468;5.804;2023-06-01T08:18:22;4.93;;;3.27;;
20334;SDS011;10325;51.468;5.804;2023-06-01T08:20:53;3.90;;;3.33;;
20334;SDS011;10325;51.468;5.804;2023-06-01T08:23:22;3.10;;;2.57;;
20334;SDS011;10325;51.468;5.804;2023-06-01T08:25:53;3.93;;;3.30;;
20334;SDS011;10325;51.468;5.804;2023-06-01T08:28:22;3.53;;;3.10;;
20334;SDS011;10325;51.468;5.804;2023-06-01T08:30:51;3.70;;;2.93;;
20334;SDS011;10325;51.468;5.804;2023-06-01T08:33:24;4.67;;;3.07;;
20334;SDS011;10325;51.468;5.804;2023-06-01T08:35:56;5.83;;;3.40;;
20334;SDS011;10325;51.468;5.804;2023-06-01T08:38:26;5.00;;;3.33;;
20334;SDS011;10325;51.468;5.804;2023-06-01T08:41:06;5.87;;;3.70;;
20334;SDS011;10325;51.468;5.804;2023-06-01T08:44:04;4.00;;;3.17;;
20334;SDS011;10325;51.468;5.804;2023-06-01T08:46:37;4.43;;;3.00;;
20334;SDS011;10325;51.468;5.804;2023-06-01T08:49:09;5.80;;;3.73;;
20334;SDS011;10325;51.468;5.804;2023-06-01T08:51:42;5.47;;;3.40;;
20334;SDS011;10325;51.468;5.804;2023-06-01T08:54:14;3.73;;;3.33;;
20334;SDS011;10325;51.468;5.804;2023-06-01T08:56:43;5.50;;;3.50;;
20334;SDS011;10325;51.468;5.804;2023-06-01T08:59:14;5.93;;;3.40;;
20334;SDS011;10325;51.468;5.804;2023-06-01T09:01:45;4.27;;;3.43;;
20334;SDS011;10325;51.468;5.804;2023-06-01T09:04:18;5.17;;;3.40;;
20334;SDS011;10325;51.468;5.804;2023-06-01T09:06:50;4.83;;;3.43;;
20334;SDS011;10325;51.468;5.804;2023-06-01T09:09:22;4.93;;;3.27;;
20334;SDS011;10325;51.468;5.804;2023-06-01T09:14:46;5.07;;;3.57;;
20334;SDS011;10325;51.468;5.804;2023-06-01T09:17:21;4.07;;;3.20;;
20334;SDS011;10325;51.468;5.804;2023-06-01T09:19:54;4.27;;;3.30;;
20334;SDS011;10325;51.468;5.804;2023-06-01T09:22:37;3.73;;;3.30;;
20334;SDS011;10325;51.468;5.804;2023-06-01T09:25:24;4.07;;;3.50;;
20334;SDS011;10325;51.468;5.804;2023-06-01T09:27:55;3.57;;;2.97;;
20334;SDS011;10325;51.468;5.804;2023-06-01T09:30:25;3.80;;;3.13;;
20334;SDS011;10325;51.468;5.804;2023-06-01T09:33:22;4.27;;;3.30;;
20334;SDS011;10325;51.468;5.804;2023-06-01T09:35:53;4.13;;;3.00;;
20334;SDS011;10325;51.468;5.804;2023-06-01T09:38:25;5.00;;;3.83;;
20334;SDS011;10325;51.468;5.804;2023-06-01T09:41:01;5.47;;;3.43;;
20334;SDS011;10325;51.468;5.804;2023-06-01T09:43:35;5.20;;;3.70;;
20334;SDS011;10325;51.468;5.804;2023-06-01T09:46:11;4.67;;;3.47;;
20334;SDS011;10325;51.468;5.804;2023-06-01T09:48:41;7.50;;;4.23;;
20334;SDS011;10325;51.468;5.804;2023-06-01T09:51:24;4.67;;;3.60;;
20334;SDS011;10325;51.468;5.804;2023-06-01T09:54:01;5.60;;;3.87;;
20334;SDS011;10325;51.468;5.804;2023-06-01T09:56:49;4.87;;;3.50;;
20334;SDS011;10325;51.468;5.804;2023-06-01T09:59:28;4.77;;;3.87;;
20334;SDS011;10325;51.468;5.804;2023-06-01T10:02:06;5.37;;;3.87;;
20334;SDS011;10325;51.468;5.804;2023-06-01T10:04:38;5.70;;;3.50;;
20334;SDS011;10325;51.468;5.804;2023-06-01T10:07:10;5.10;;;3.97;;
20334;SDS011;10325;51.468;5.804;2023-06-01T10:09:52;5.37;;;3.50;;
20334;SDS011;10325;51.468;5.804;2023-06-01T10:12:26;3.87;;;3.47;;
20334;SDS011;10325;51.468;5.804;2023-06-01T10:15:00;4.10;;;3.53;;
20334;SDS011;10325;51.468;5.804;2023-06-01T10:17:58;6.23;;;3.70;;
20334;SDS011;10325;51.468;5.804;2023-06-01T10:20:31;5.47;;;4.40;;
20334;SDS011;10325;51.468;5.804;2023-06-01T10:23:06;5.83;;;3.40;;
20334;SDS011;10325;51.468;5.804;2023-06-01T10:25:55;4.87;;;3.23;;
20334;SDS011;10325;51.468;5.804;2023-06-01T10:28:29;5.20;;;3.80;;
20334;SDS011;10325;51.468;5.804;2023-06-01T10:34:40;5.60;;;3.47;;
20334;SDS011;10325;51.468;5.804;2023-06-01T10:37:16;5.37;;;3.87;;
20334;SDS011;10325;51.468;5.804;2023-06-01T10:39:48;6.20;;;4.23;;
20334;SDS011;10325;51.468;5.804;2023-06-01T10:44:50;5.67;;;4.37;;
20334;SDS011;10325;51.468;5.804;2023-06-01T10:52:33;4.80;;;3.90;;
20334;SDS011;10325;51.468;5.804;2023-06-01T10:57:44;5.20;;;3.87;;
20334;SDS011;10325;51.468;5.804;2023-06-01T11:02:57;6.03;;;4.00;;
20334;SDS011;10325;51.468;5.804;2023-06-01T11:08:55;6.20;;;4.70;;
20334;SDS011;10325;51.468;5.804;2023-06-01T11:11:02;5.43;;;4.83;;
20334;SDS011;10325;51.468;5.804;2023-06-01T11:13:44;7.87;;;4.90;;
20334;SDS011;10325;51.468;5.804;2023-06-01T11:18:53;6.63;;;4.40;;
20334;SDS011;10325;51.468;5.804;2023-06-01T11:21:39;6.30;;;4.57;;
20334;SDS011;10325;51.468;5.804;2023-06-01T11:24:12;5.40;;;4.37;;
20334;SDS011;10325;51.468;5.804;2023-06-01T11:26:45;5.93;;;4.67;;
20334;SDS011;10325;51.468;5.804;2023-06-01T11:29:21;5.13;;;4.37;;
20334;SDS011;10325;51.468;5.804;2023-06-01T11:32:03;8.00;;;5.43;;
20334;SDS011;10325;51.468;5.804;2023-06-01T11:34:48;5.63;;;4.40;;
20334;SDS011;10325;51.468;5.804;2023-06-01T11:37:20;5.37;;;4.77;;
20334;SDS011;10325;51.468;5.804;2023-06-01T11:39:50;6.90;;;4.80;;
20334;SDS011;10325;51.468;5.804;2023-06-01T11:42:34;5.60;;;4.57;;
20334;SDS011;10325;51.468;5.804;2023-06-01T11:45:02;5.77;;;4.83;;
20334;SDS011;10325;51.468;5.804;2023-06-01T11:47:32;7.33;;;5.17;;
20334;SDS011;10325;51.468;5.804;2023-06-01T11:50:06;8.03;;;5.30;;
20334;SDS011;10325;51.468;5.804;2023-06-01T11:52:47;7.10;;;5.03;;
20334;SDS011;10325;51.468;5.804;2023-06-01T11:55:16;7.13;;;4.40;;
20334;SDS011;10325;51.468;5.804;2023-06-01T11:57:49;5.60;;;4.50;;
20334;SDS011;10325;51.468;5.804;2023-06-01T12:00:20;6.90;;;4.83;;
20334;SDS011;10325;51.468;5.804;2023-06-01T12:03:04;5.60;;;4.50;;
20334;SDS011;10325;51.468;5.804;2023-06-01T12:05:38;6.33;;;5.00;;
20334;SDS011;10325;51.468;5.804;2023-06-01T12:08:22;5.33;;;4.50;;
20334;SDS011;10325;51.468;5.804;2023-06-01T12:11:14;6.83;;;4.63;;
20334;SDS011;10325;51.468;5.804;2023-06-01T12:14:05;5.20;;;4.10;;
20334;SDS011;10325;51.468;5.804;2023-06-01T12:19:50;5.07;;;4.03;;
20334;SDS011;10325;51.468;5.804;2023-06-01T12:22:23;5.00;;;4.50;;
20334;SDS011;10325;51.468;5.804;2023-06-01T12:25:06;6.23;;;4.60;;
20334;SDS011;10325;51.468;5.804;2023-06-01T12:28:05;4.57;;;3.93;;
20334;SDS011;10325;51.468;5.804;2023-06-01T12:31:11;5.00;;;4.17;;
20334;SDS011;10325;51.468;5.804;2023-06-01T12:34:14;4.93;;;4.30;;
20334;SDS011;10325;51.468;5.804;2023-06-01T12:36:46;6.13;;;4.70;;
20334;SDS011;10325;51.468;5.804;2023-06-01T12:39:24;5.57;;;4.13;;
20334;SDS011;10325;51.468;5.804;2023-06-01T12:42:07;5.60;;;4.17;;
20334;SDS011;10325;51.468;5.804;2023-06-01T12:44:53;4.77;;;4.07;;
20334;SDS011;10325;51.468;5.804;2023-06-01T12:47:22;5.50;;;4.23;;
20334;SDS011;10325;51.468;5.804;2023-06-01T12:50:09;5.50;;;4.67;;
20334;SDS011;10325;51.468;5.804;2023-06-01T12:52:40;7.03;;;4.13;;
20334;SDS011;10325;51.468;5.804;2023-06-01T12:55:14;6.50;;;4.80;;
20334;SDS011;10325;51.468;5.804;2023-06-01T12:57:55;6.13;;;3.90;;
20334;SDS011;10325;51.468;5.804;2023-06-01T13:00:27;5.73;;;4.20;;
20334;SDS011;10325;51.468;5.804;2023-06-01T13:03:23;5.20;;;4.10;;
20334;SDS011;10325;51.468;5.804;2023-06-01T13:05:57;4.80;;;4.20;;
20334;SDS011;10325;51.468;5.804;2023-06-01T13:08:26;6.60;;;4.43;;
20334;SDS011;10325;51.468;5.804;2023-06-01T13:10:56;6.03;;;4.43;;
20334;SDS011;10325;51.468;5.804;2023-06-01T13:13:25;6.93;;;4.43;;
20334;SDS011;10325;51.468;5.804;2023-06-01T13:15:57;5.60;;;4.30;;
20334;SDS011;10325;51.468;5.804;2023-06-01T13:18:29;5.57;;;4.20;;
20334;SDS011;10325;51.468;5.804;2023-06-01T13:21:01;5.80;;;4.37;;
20334;SDS011;10325;51.468;5.804;2023-06-01T13:23:29;5.17;;;4.67;;
20334;SDS011;10325;51.468;5.804;2023-06-01T13:26:01;5.70;;;4.43;;
20334;SDS011;10325;51.468;5.804;2023-06-01T13:28:29;6.50;;;4.40;;
20334;SDS011;10325;51.468;5.804;2023-06-01T13:31:02;5.17;;;4.17;;
20334;SDS011;10325;51.468;5.804;2023-06-01T13:33:33;9.03;;;4.43;;
20334;SDS011;10325;51.468;5.804;2023-06-01T13:36:01;6.17;;;3.90;;
20334;SDS011;10325;51.468;5.804;2023-06-01T13:38:35;7.37;;;4.50;;
20334;SDS011;10325;51.468;5.804;2023-06-01T13:41:05;6.73;;;3.97;;
20334;SDS011;10325;51.468;5.804;2023-06-01T13:43:34;5.73;;;4.03;;
20334;SDS011;10325;51.468;5.804;2023-06-01T13:46:08;5.07;;;4.00;;
20334;SDS011;10325;51.468;5.804;2023-06-01T13:48:42;4.20;;;3.80;;
20334;SDS011;10325;51.468;5.804;2023-06-01T13:51:12;4.33;;;3.87;;
20334;SDS011;10325;51.468;5.804;2023-06-01T13:53:44;5.80;;;3.60;;
20334;SDS011;10325;51.468;5.804;2023-06-01T13:56:14;6.83;;;4.50;;
20334;SDS011;10325;51.468;5.804;2023-06-01T13:58:44;6.73;;;4.40;;
20334;SDS011;10325;51.468;5.804;2023-06-01T14:01:15;5.57;;;3.83;;
20334;SDS011;10325;51.468;5.804;2023-06-01T14:03:49;5.90;;;3.80;;
20334;SDS011;10325;51.468;5.804;2023-06-01T14:06:19;4.10;;;3.67;;
20334;SDS011;10325;51.468;5.804;2023-06-01T14:08:49;5.43;;;3.67;;
20334;SDS011;10325;51.468;5.804;2023-06-01T14:11:18;5.90;;;4.03;;
20334;SDS011;10325;51.468;5.804;2023-06-01T14:13:48;4.23;;;3.50;;
20334;SDS011;10325;51.468;5.804;2023-06-01T14:16:19;5.60;;;4.17;;
20334;SDS011;10325;51.468;5.804;2023-06-01T14:18:47;7.33;;;3.70;;
20334;SDS011;10325;51.468;5.804;2023-06-01T14:21:17;5.57;;;3.43;;
20334;SDS011;10325;51.468;5.804;2023-06-01T14:23:49;6.60;;;4.50;;
20334;SDS011;10325;51.468;5.804;2023-06-01T14:26:21;6.70;;;4.53;;
20334;SDS011;10325;51.468;5.804;2023-06-01T14:28:54;6.23;;;4.17;;
20334;SDS011;10325;51.468;5.804;2023-06-01T14:31:24;4.80;;;3.90;;
20334;SDS011;10325;51.468;5.804;2023-06-01T14:33:53;6.53;;;4.33;;
20334;SDS011;10325;51.468;5.804;2023-06-01T14:36:26;8.07;;;4.10;;
20334;SDS011;10325;51.468;5.804;2023-06-01T14:39:12;5.47;;;4.57;;
20334;SDS011;10325;51.468;5.804;2023-06-01T14:41:48;8.23;;;4.17;;
20334;SDS011;10325;51.468;5.804;2023-06-01T14:44:17;7.43;;;3.93;;
20334;SDS011;10325;51.468;5.804;2023-06-01T14:46:48;4.93;;;3.77;;
20334;SDS011;10325;51.468;5.804;2023-06-01T14:49:19;6.00;;;3.97;;
20334;SDS011;10325;51.468;5.804;2023-06-01T14:51:58;6.50;;;4.23;;
20334;SDS011;10325;51.468;5.804;2023-06-01T14:54:27;6.53;;;4.13;;
20334;SDS011;10325;51.468;5.804;2023-06-01T14:57:05;5.40;;;4.20;;
20334;SDS011;10325;51.468;5.804;2023-06-01T14:59:34;4.63;;;3.80;;
20334;SDS011;10325;51.468;5.804;2023-06-01T15:02:18;5.30;;;3.90;;
20334;SDS011;10325;51.468;5.804;2023-06-01T15:04:46;4.33;;;3.50;;
20334;SDS011;10325;51.468;5.804;2023-06-01T15:07:16;6.73;;;4.10;;
20334;SDS011;10325;51.468;5.804;2023-06-01T15:09:48;5.87;;;3.90;;
20334;SDS011;10325;51.468;5.804;2023-06-01T15:12:23;5.30;;;3.80;;
20334;SDS011;10325;51.468;5.804;2023-06-01T15:14:53;3.90;;;3.53;;
20334;SDS011;10325;51.468;5.804;2023-06-01T15:17:25;7.33;;;4.40;;
20334;SDS011;10325;51.468;5.804;2023-06-01T15:19:56;5.57;;;4.03;;
20334;SDS011;10325;51.468;5.804;2023-06-01T15:22:23;5.10;;;3.57;;
20334;SDS011;10325;51.468;5.804;2023-06-01T15:24:53;4.30;;;3.20;;
20334;SDS011;10325;51.468;5.804;2023-06-01T15:27:21;7.83;;;4.27;;
20334;SDS011;10325;51.468;5.804;2023-06-01T15:29:52;5.03;;;3.47;;
20334;SDS011;10325;51.468;5.804;2023-06-01T15:32:24;5.20;;;3.80;;
20334;SDS011;10325;51.468;5.804;2023-06-01T15:34:53;4.27;;;3.23;;
20334;SDS011;10325;51.468;5.804;2023-06-01T15:37:24;4.93;;;3.10;;
20334;SDS011;10325;51.468;5.804;2023-06-01T15:39:55;5.13;;;3.27;;
20334;SDS011;10325;51.468;5.804;2023-06-01T15:42:26;5.73;;;3.13;;
20334;SDS011;10325;51.468;5.804;2023-06-01T15:44:58;5.83;;;2.90;;
20334;SDS011;10325;51.468;5.804;2023-06-01T15:47:41;4.20;;;3.40;;
20334;SDS011;10325;51.468;5.804;2023-06-01T15:50:15;5.70;;;3.57;;
20334;SDS011;10325;51.468;5.804;2023-06-01T15:52:43;6.30;;;3.37;;
20334;SDS011;10325;51.468;5.804;2023-06-01T15:55:14;4.20;;;3.40;;
20334;SDS011;10325;51.468;5.804;2023-06-01T15:57:46;4.03;;;3.60;;
20334;SDS011;10325;51.468;5.804;2023-06-01T16:00:18;5.70;;;3.53;;
20334;SDS011;10325;51.468;5.804;2023-06-01T16:02:49;4.30;;;3.27;;